sensor_id;sensor_type;location;lat;lon;timestamp;pressure;altitude;pressure_sealevel;temperature;humidity
34696;BME280;20918;51.138;17.370;2022-08-03T00:02:52;100424.09;;;14.84;70.40
34696;BME280;20918;51.138;17.370;2022-08-03T00:05:53;100427.48;;;14.82;70.72
34696;BME280;20918;51.138;17.370;2022-08-03T00:08:54;100427.52;;;14.77;71.05
34696;BME280;20918;51.138;17.370;2022-08-03T00:11:55;100428.47;;;14.70;71.32
34696;BME280;20918;51.138;17.370;2022-08-03T00:14:56;100431.97;;;14.70;71.39
34696;BME280;20918;51.138;17.370;2022-08-03T00:17:57;100435.08;;;14.74;71.39
34696;BME280;20918;51.138;17.370;2022-08-03T00:20:58;100431.08;;;14.74;71.29
34696;BME280;20918;51.138;17.370;2022-08-03T00:23:59;100430.16;;;14.67;72.12
34696;BME280;20918;51.138;17.370;2022-08-03T00:27:01;100426.89;;;14.61;72.42
34696;BME280;20918;51.138;17.370;2022-08-03T00:30:03;100432.23;;;14.61;72.24
34696;BME280;20918;51.138;17.370;2022-08-03T00:33:04;100429.77;;;14.59;72.20
34696;BME280;20918;51.138;17.370;2022-08-03T00:36:09;100432.16;;;14.54;72.01
34696;BME280;20918;51.138;17.370;2022-08-03T00:39:13;100431.48;;;14.56;72.20
34696;BME280;20918;51.138;17.370;2022-08-03T00:42:15;100429.28;;;14.55;72.08
34696;BME280;20918;51.138;17.370;2022-08-03T00:45:17;100432.50;;;14.51;72.65
34696;BME280;20918;51.138;17.370;2022-08-03T00:48:19;100427.16;;;14.51;72.76
34696;BME280;20918;51.138;17.370;2022-08-03T00:51:21;100424.86;;;14.48;72.60
34696;BME280;20918;51.138;17.370;2022-08-03T00:54:24;100423.55;;;14.44;72.48
34696;BME280;20918;51.138;17.370;2022-08-03T00:57:26;100428.52;;;14.47;72.94
34696;BME280;20918;51.138;17.370;2022-08-03T01:00:29;100428.22;;;14.46;73.05
34696;BME280;20918;51.138;17.370;2022-08-03T01:03:30;100428.30;;;14.38;73.02
34696;BME280;20918;51.138;17.370;2022-08-03T01:06:46;100423.33;;;14.34;72.98
34696;BME280;20918;51.138;17.370;2022-08-03T01:09:52;100422.17;;;14.33;72.96
34696;BME280;20918;51.138;17.370;2022-08-03T01:13:20;100421.06;;;14.27;72.61
34696;BME280;20918;51.138;17.370;2022-08-03T01:16:32;100430.77;;;14.24;72.76
34696;BME280;20918;51.138;17.370;2022-08-03T01:20:02;100426.14;;;14.22;72.77
34696;BME280;20918;51.138;17.370;2022-08-03T01:30:07;100426.39;;;14.12;72.79
34696;BME280;20918;51.138;17.370;2022-08-03T01:33:21;100421.26;;;14.11;72.86
34696;BME280;20918;51.138;17.370;2022-08-03T01:36:28;100418.91;;;14.12;72.95
34696;BME280;20918;51.138;17.370;2022-08-03T01:39:35;100420.77;;;14.07;72.75
34696;BME280;20918;51.138;17.370;2022-08-03T01:42:41;100417.63;;;14.08;73.24
34696;BME280;20918;51.138;17.370;2022-08-03T01:45:44;100418.47;;;14.04;72.93
34696;BME280;20918;51.138;17.370;2022-08-03T01:48:48;100418.18;;;13.99;72.81
34696;BME280;20918;51.138;17.370;2022-08-03T01:51:50;100419.56;;;13.95;72.90
34696;BME280;20918;51.138;17.370;2022-08-03T01:54:52;100418.96;;;13.89;72.85
34696;BME280;20918;51.138;17.370;2022-08-03T01:57:56;100417.80;;;13.87;72.84
34696;BME280;20918;51.138;17.370;2022-08-03T02:01:00;100417.94;;;13.90;73.51
34696;BME280;20918;51.138;17.370;2022-08-03T02:04:04;100409.63;;;13.89;73.56
34696;BME280;20918;51.138;17.370;2022-08-03T02:07:07;100407.13;;;13.87;73.53
34696;BME280;20918;51.138;17.370;2022-08-03T02:10:12;100410.36;;;13.83;73.64
34696;BME280;20918;51.138;17.370;2022-08-03T02:13:16;100405.86;;;13.79;73.39
34696;BME280;20918;51.138;17.370;2022-08-03T02:16:21;100410.23;;;13.76;73.19
34696;BME280;20918;51.138;17.370;2022-08-03T02:19:23;100403.27;;;13.71;73.50
34696;BME280;20918;51.138;17.370;2022-08-03T02:22:26;100399.37;;;13.63;74.16
34696;BME280;20918;51.138;17.370;2022-08-03T02:25:29;100393.37;;;13.61;74.21
34696;BME280;20918;51.138;17.370;2022-08-03T02:28:35;100389.37;;;13.61;73.70
34696;BME280;20918;51.138;17.370;2022-08-03T02:31:38;100387.39;;;13.59;74.29
34696;BME280;20918;51.138;17.370;2022-08-03T02:34:43;100387.75;;;13.56;73.92
34696;BME280;20918;51.138;17.370;2022-08-03T02:37:55;100395.28;;;13.52;73.83
34696;BME280;20918;51.138;17.370;2022-08-03T02:40:58;100391.81;;;13.48;73.76
34696;BME280;20918;51.138;17.370;2022-08-03T02:44:04;100395.81;;;13.48;73.77
34696;BME280;20918;51.138;17.370;2022-08-03T02:47:09;100395.65;;;13.49;74.03
34696;BME280;20918;51.138;17.370;2022-08-03T02:50:12;100391.80;;;13.52;73.99
34696;BME280;20918;51.138;17.370;2022-08-03T02:53:17;100403.07;;;13.58;74.38
34696;BME280;20918;51.138;17.370;2022-08-03T02:56:21;100400.06;;;13.57;74.27
34696;BME280;20918;51.138;17.370;2022-08-03T02:59:24;100403.70;;;13.60;74.31
34696;BME280;20918;51.138;17.370;2022-08-03T03:02:27;100405.17;;;13.62;74.46
34696;BME280;20918;51.138;17.370;2022-08-03T03:05:29;100409.48;;;13.67;74.52
34696;BME280;20918;51.138;17.370;2022-08-03T03:08:31;100414.64;;;13.69;75.11
34696;BME280;20918;51.138;17.370;2022-08-03T03:11:35;100413.45;;;13.72;75.45
34696;BME280;20918;51.138;17.370;2022-08-03T03:14:39;100414.42;;;13.75;75.66
34696;BME280;20918;51.138;17.370;2022-08-03T03:17:42;100412.88;;;13.80;75.67
34696;BME280;20918;51.138;17.370;2022-08-03T03:20:44;100410.81;;;13.86;76.29
34696;BME280;20918;51.138;17.370;2022-08-03T03:23:46;100407.73;;;13.94;76.55
34696;BME280;20918;51.138;17.370;2022-08-03T03:26:47;100402.00;;;14.01;76.70
34696;BME280;20918;51.138;17.370;2022-08-03T03:29:49;100399.06;;;14.10;76.94
34696;BME280;20918;51.138;17.370;2022-08-03T03:32:50;100404.52;;;14.17;77.00
34696;BME280;20918;51.138;17.370;2022-08-03T03:35:52;100407.09;;;14.25;77.10
34696;BME280;20918;51.138;17.370;2022-08-03T03:38:54;100407.83;;;14.34;77.06
34696;BME280;20918;51.138;17.370;2022-08-03T03:41:55;100409.22;;;14.45;77.12
34696;BME280;20918;51.138;17.370;2022-08-03T03:44:57;100409.46;;;14.50;77.03
34696;BME280;20918;51.138;17.370;2022-08-03T03:48:00;100411.45;;;14.56;77.17
34696;BME280;20918;51.138;17.370;2022-08-03T03:51:01;100411.66;;;14.65;77.11
34696;BME280;20918;51.138;17.370;2022-08-03T03:54:03;100419.20;;;14.76;77.23
34696;BME280;20918;51.138;17.370;2022-08-03T03:57:07;100419.30;;;14.94;77.08
34696;BME280;20918;51.138;17.370;2022-08-03T04:00:12;100420.34;;;15.14;77.20
34696;BME280;20918;51.138;17.370;2022-08-03T04:03:14;100420.88;;;15.35;77.16
34696;BME280;20918;51.138;17.370;2022-08-03T04:06:16;100424.17;;;15.48;76.86
34696;BME280;20918;51.138;17.370;2022-08-03T04:09:38;100429.91;;;15.66;77.01
34696;BME280;20918;51.138;17.370;2022-08-03T04:12:59;100430.08;;;16.08;77.04
34696;BME280;20918;51.138;17.370;2022-08-03T04:16:03;100425.69;;;16.52;76.45
34696;BME280;20918;51.138;17.370;2022-08-03T04:19:07;100430.09;;;16.67;75.97
34696;BME280;20918;51.138;17.370;2022-08-03T04:22:21;100427.41;;;16.67;75.50
34696;BME280;20918;51.138;17.370;2022-08-03T04:25:27;100425.12;;;16.64;75.42
34696;BME280;20918;51.138;17.370;2022-08-03T04:28:31;100432.86;;;16.63;75.27
34696;BME280;20918;51.138;17.370;2022-08-03T04:31:34;100433.33;;;16.55;75.28
34696;BME280;20918;51.138;17.370;2022-08-03T04:34:36;100431.38;;;16.53;75.35
34696;BME280;20918;51.138;17.370;2022-08-03T04:37:47;100431.17;;;16.55;75.38
34696;BME280;20918;51.138;17.370;2022-08-03T04:40:49;100440.87;;;16.56;75.38
34696;BME280;20918;51.138;17.370;2022-08-03T04:43:55;100440.87;;;16.56;75.40
34696;BME280;20918;51.138;17.370;2022-08-03T04:46:58;100433.66;;;16.56;75.37
34696;BME280;20918;51.138;17.370;2022-08-03T04:50:01;100442.76;;;16.62;75.54
34696;BME280;20918;51.138;17.370;2022-08-03T04:53:07;100436.91;;;16.69;75.59
34696;BME280;20918;51.138;17.370;2022-08-03T04:56:09;100433.94;;;16.75;75.50
34696;BME280;20918;51.138;17.370;2022-08-03T04:59:11;100433.34;;;16.73;75.43
34696;BME280;20918;51.138;17.370;2022-08-03T05:02:12;100433.78;;;16.76;75.60
34696;BME280;20918;51.138;17.370;2022-08-03T05:05:13;100428.14;;;16.82;75.63
34696;BME280;20918;51.138;17.370;2022-08-03T05:08:15;100427.64;;;16.89;75.77
34696;BME280;20918;51.138;17.370;2022-08-03T05:11:16;100433.27;;;17.01;75.80
34696;BME280;20918;51.138;17.370;2022-08-03T05:14:17;100430.60;;;17.08;75.85
34696;BME280;20918;51.138;17.370;2022-08-03T05:17:19;100430.35;;;17.27;75.89
34696;BME280;20918;51.138;17.370;2022-08-03T05:20:20;100424.58;;;17.36;75.62
34696;BME280;20918;51.138;17.370;2022-08-03T05:23:21;100432.33;;;17.42;75.54
34696;BME280;20918;51.138;17.370;2022-08-03T05:26:22;100428.55;;;17.60;75.63
34696;BME280;20918;51.138;17.370;2022-08-03T05:29:23;100425.59;;;17.99;75.75
34696;BME280;20918;51.138;17.370;2022-08-03T05:32:24;100428.73;;;18.74;75.80
34696;BME280;20918;51.138;17.370;2022-08-03T05:35:25;100429.57;;;19.67;75.14
34696;BME280;20918;51.138;17.370;2022-08-03T05:38:28;100427.86;;;20.51;74.29
34696;BME280;20918;51.138;17.370;2022-08-03T05:41:29;100425.55;;;21.21;73.08
34696;BME280;20918;51.138;17.370;2022-08-03T05:44:30;100425.88;;;21.76;71.38
34696;BME280;20918;51.138;17.370;2022-08-03T05:47:31;100430.72;;;22.09;70.11
34696;BME280;20918;51.138;17.370;2022-08-03T05:50:32;100431.80;;;22.58;69.22
34696;BME280;20918;51.138;17.370;2022-08-03T05:53:36;100437.02;;;23.00;67.86
34696;BME280;20918;51.138;17.370;2022-08-03T05:56:37;100437.84;;;22.89;66.82
34696;BME280;20918;51.138;17.370;2022-08-03T05:59:40;100440.16;;;22.82;66.04
34696;BME280;20918;51.138;17.370;2022-08-03T06:02:41;100439.99;;;22.75;65.87
34696;BME280;20918;51.138;17.370;2022-08-03T06:05:42;100444.61;;;22.89;65.54
34696;BME280;20918;51.138;17.370;2022-08-03T06:08:44;100439.48;;;23.01;65.51
34696;BME280;20918;51.138;17.370;2022-08-03T06:11:45;100434.50;;;23.24;65.22
34696;BME280;20918;51.138;17.370;2022-08-03T06:14:46;100435.67;;;23.29;63.80
34696;BME280;20918;51.138;17.370;2022-08-03T06:17:48;100440.83;;;23.30;63.63
34696;BME280;20918;51.138;17.370;2022-08-03T06:20:54;100441.55;;;23.54;62.53
34696;BME280;20918;51.138;17.370;2022-08-03T06:23:55;100446.20;;;23.90;63.27
34696;BME280;20918;51.138;17.370;2022-08-03T06:26:56;100443.75;;;24.64;63.28
34696;BME280;20918;51.138;17.370;2022-08-03T06:29:58;100445.36;;;25.06;60.67
34696;BME280;20918;51.138;17.370;2022-08-03T06:32:59;100444.59;;;25.35;60.17
34696;BME280;20918;51.138;17.370;2022-08-03T06:36:00;100447.23;;;25.27;58.96
34696;BME280;20918;51.138;17.370;2022-08-03T06:39:01;100455.90;;;25.52;56.01
34696;BME280;20918;51.138;17.370;2022-08-03T06:42:03;100452.48;;;25.34;56.93
34696;BME280;20918;51.138;17.370;2022-08-03T06:45:06;100452.09;;;25.53;57.48
34696;BME280;20918;51.138;17.370;2022-08-03T06:48:10;100448.38;;;25.91;57.11
34696;BME280;20918;51.138;17.370;2022-08-03T06:51:12;100447.21;;;26.19;54.97
34696;BME280;20918;51.138;17.370;2022-08-03T06:54:13;100447.70;;;26.11;54.46
34696;BME280;20918;51.138;17.370;2022-08-03T06:57:15;100447.80;;;26.29;54.43
34696;BME280;20918;51.138;17.370;2022-08-03T07:00:18;100445.98;;;26.42;54.33
34696;BME280;20918;51.138;17.370;2022-08-03T07:03:19;100449.48;;;26.90;53.28
34696;BME280;20918;51.138;17.370;2022-08-03T07:06:20;100450.54;;;26.81;52.08
34696;BME280;20918;51.138;17.370;2022-08-03T07:09:21;100446.95;;;26.71;51.52
34696;BME280;20918;51.138;17.370;2022-08-03T07:12:22;100446.94;;;26.68;51.11
34696;BME280;20918;51.138;17.370;2022-08-03T07:15:24;100452.27;;;26.48;51.77
34696;BME280;20918;51.138;17.370;2022-08-03T07:18:25;100450.16;;;26.57;52.17
34696;BME280;20918;51.138;17.370;2022-08-03T07:21:26;100447.53;;;26.83;52.28
34696;BME280;20918;51.138;17.370;2022-08-03T07:24:27;100443.28;;;27.13;51.74
34696;BME280;20918;51.138;17.370;2022-08-03T07:27:29;100441.44;;;27.34;51.45
34696;BME280;20918;51.138;17.370;2022-08-03T07:30:30;100441.44;;;27.36;50.97
34696;BME280;20918;51.138;17.370;2022-08-03T07:33:32;100443.36;;;27.38;50.88
34696;BME280;20918;51.138;17.370;2022-08-03T07:36:33;100445.00;;;27.49;51.15
34696;BME280;20918;51.138;17.370;2022-08-03T07:39:34;100443.94;;;27.81;50.79
34696;BME280;20918;51.138;17.370;2022-08-03T07:42:35;100441.22;;;27.97;49.42
34696;BME280;20918;51.138;17.370;2022-08-03T07:45:36;100442.84;;;28.10;49.94
34696;BME280;20918;51.138;17.370;2022-08-03T07:48:37;100443.34;;;28.25;49.06
34696;BME280;20918;51.138;17.370;2022-08-03T07:51:38;100451.28;;;28.01;48.62
34696;BME280;20918;51.138;17.370;2022-08-03T07:54:39;100444.72;;;28.18;48.27
34696;BME280;20918;51.138;17.370;2022-08-03T07:57:40;100441.72;;;28.22;48.92
34696;BME280;20918;51.138;17.370;2022-08-03T08:00:42;100443.30;;;28.38;47.86
34696;BME280;20918;51.138;17.370;2022-08-03T08:03:48;100447.05;;;28.68;48.12
34696;BME280;20918;51.138;17.370;2022-08-03T08:06:49;100446.72;;;28.79;45.53
34696;BME280;20918;51.138;17.370;2022-08-03T08:09:50;100439.89;;;28.82;45.91
34696;BME280;20918;51.138;17.370;2022-08-03T08:12:52;100443.87;;;29.08;46.36
34696;BME280;20918;51.138;17.370;2022-08-03T08:15:56;100441.22;;;28.92;45.63
34696;BME280;20918;51.138;17.370;2022-08-03T08:18:58;100445.47;;;28.51;45.44
34696;BME280;20918;51.138;17.370;2022-08-03T08:21:58;100441.14;;;28.43;45.63
34696;BME280;20918;51.138;17.370;2022-08-03T08:24:59;100441.59;;;28.68;46.29
34696;BME280;20918;51.138;17.370;2022-08-03T08:28:00;100441.72;;;28.97;44.78
34696;BME280;20918;51.138;17.370;2022-08-03T08:31:03;100447.17;;;29.07;44.79
34696;BME280;20918;51.138;17.370;2022-08-03T08:34:04;100422.44;;;29.62;42.82
34696;BME280;20918;51.138;17.370;2022-08-03T08:37:06;100422.65;;;29.73;43.63
34696;BME280;20918;51.138;17.370;2022-08-03T08:40:08;100422.65;;;29.73;43.63
34696;BME280;20918;51.138;17.370;2022-08-03T08:43:10;100446.40;;;30.07;42.14
34696;BME280;20918;51.138;17.370;2022-08-03T08:46:15;100423.77;;;29.72;41.19
34696;BME280;20918;51.138;17.370;2022-08-03T08:49:17;100441.45;;;29.82;41.40
34696;BME280;20918;51.138;17.370;2022-08-03T08:52:27;100442.71;;;29.92;41.78
34696;BME280;20918;51.138;17.370;2022-08-03T08:55:26;100431.08;;;30.08;39.81
34696;BME280;20918;51.138;17.370;2022-08-03T08:58:33;100429.16;;;30.09;40.59
34696;BME280;20918;51.138;17.370;2022-08-03T09:01:35;100432.86;;;30.23;40.22
34696;BME280;20918;51.138;17.370;2022-08-03T09:04:38;100435.98;;;29.82;37.75
34696;BME280;20918;51.138;17.370;2022-08-03T09:07:40;100442.94;;;29.67;39.01
34696;BME280;20918;51.138;17.370;2022-08-03T09:10:42;100430.81;;;29.78;39.01
34696;BME280;20918;51.138;17.370;2022-08-03T09:13:43;100437.27;;;29.90;39.08
34696;BME280;20918;51.138;17.370;2022-08-03T09:17:01;100440.09;;;29.82;38.81
34696;BME280;20918;51.138;17.370;2022-08-03T09:20:05;100438.77;;;29.77;40.05
34696;BME280;20918;51.138;17.370;2022-08-03T09:23:09;100434.83;;;29.88;40.17
34696;BME280;20918;51.138;17.370;2022-08-03T09:26:10;100427.81;;;30.06;39.44
34696;BME280;20918;51.138;17.370;2022-08-03T09:29:11;100431.26;;;30.17;38.20
34696;BME280;20918;51.138;17.370;2022-08-03T09:32:13;100431.22;;;29.93;38.28
34696;BME280;20918;51.138;17.370;2022-08-03T09:35:26;100420.53;;;29.97;39.10
34696;BME280;20918;51.138;17.370;2022-08-03T09:38:31;100419.33;;;30.08;38.62
34696;BME280;20918;51.138;17.370;2022-08-03T09:41:32;100412.53;;;30.29;37.98
34696;BME280;20918;51.138;17.370;2022-08-03T09:44:38;100420.89;;;30.41;39.15
34696;BME280;20918;51.138;17.370;2022-08-03T09:47:51;100420.85;;;30.67;40.08
34696;BME280;20918;51.138;17.370;2022-08-03T09:50:55;100408.11;;;31.00;38.91
34696;BME280;20918;51.138;17.370;2022-08-03T09:53:57;100411.09;;;31.20;39.03
34696;BME280;20918;51.138;17.370;2022-08-03T09:57:02;100416.97;;;31.49;39.24
34696;BME280;20918;51.138;17.370;2022-08-03T10:00:12;100409.90;;;31.26;37.35
34696;BME280;20918;51.138;17.370;2022-08-03T10:03:14;100406.32;;;31.10;37.00
34696;BME280;20918;51.138;17.370;2022-08-03T10:06:17;100406.39;;;31.23;38.78
34696;BME280;20918;51.138;17.370;2022-08-03T10:09:19;100407.06;;;31.67;37.70
34696;BME280;20918;51.138;17.370;2022-08-03T10:12:21;100404.64;;;31.65;36.62
34696;BME280;20918;51.138;17.370;2022-08-03T10:15:22;100405.05;;;31.56;36.99
34696;BME280;20918;51.138;17.370;2022-08-03T10:18:24;100399.23;;;31.60;35.52
34696;BME280;20918;51.138;17.370;2022-08-03T10:21:27;100402.30;;;31.73;37.07
34696;BME280;20918;51.138;17.370;2022-08-03T10:24:33;100399.39;;;31.99;36.94
34696;BME280;20918;51.138;17.370;2022-08-03T10:27:40;100398.97;;;31.92;36.39
34696;BME280;20918;51.138;17.370;2022-08-03T10:30:48;100394.40;;;32.01;36.60
34696;BME280;20918;51.138;17.370;2022-08-03T10:33:51;100388.77;;;32.09;36.37
34696;BME280;20918;51.138;17.370;2022-08-03T10:36:56;100389.72;;;31.55;34.98
34696;BME280;20918;51.138;17.370;2022-08-03T10:39:59;100383.23;;;31.13;36.13
34696;BME280;20918;51.138;17.370;2022-08-03T10:43:09;100387.84;;;30.99;35.95
34696;BME280;20918;51.138;17.370;2022-08-03T10:46:13;100383.06;;;31.07;35.34
34696;BME280;20918;51.138;17.370;2022-08-03T10:49:19;100383.22;;;31.32;36.39
34696;BME280;20918;51.138;17.370;2022-08-03T10:52:21;100383.03;;;31.45;35.62
34696;BME280;20918;51.138;17.370;2022-08-03T10:55:36;100384.36;;;31.12;35.75
34696;BME280;20918;51.138;17.370;2022-08-03T10:58:57;100381.59;;;31.15;35.58
34696;BME280;20918;51.138;17.370;2022-08-03T11:01:58;100381.62;;;31.12;35.44
34696;BME280;20918;51.138;17.370;2022-08-03T11:05:25;100378.70;;;31.22;36.16
34696;BME280;20918;51.138;17.370;2022-08-03T11:08:32;100377.46;;;31.50;37.34
34696;BME280;20918;51.138;17.370;2022-08-03T11:11:38;100377.02;;;31.92;36.29
34696;BME280;20918;51.138;17.370;2022-08-03T11:14:47;100375.52;;;32.13;36.86
34696;BME280;20918;51.138;17.370;2022-08-03T11:18:07;100372.41;;;32.31;35.76
34696;BME280;20918;51.138;17.370;2022-08-03T11:21:11;100373.81;;;32.43;35.77
34696;BME280;20918;51.138;17.370;2022-08-03T11:27:43;100364.11;;;32.62;34.50
34696;BME280;20918;51.138;17.370;2022-08-03T11:30:44;100357.10;;;32.80;34.65
34696;BME280;20918;51.138;17.370;2022-08-03T11:34:09;100368.22;;;32.87;34.49
34696;BME280;20918;51.138;17.370;2022-08-03T11:37:22;100365.14;;;33.13;34.71
34696;BME280;20918;51.138;17.370;2022-08-03T11:40:33;100364.27;;;33.26;33.79
34696;BME280;20918;51.138;17.370;2022-08-03T11:43:48;100364.72;;;33.09;32.51
34696;BME280;20918;51.138;17.370;2022-08-03T11:46:50;100363.81;;;32.74;32.73
34696;BME280;20918;51.138;17.370;2022-08-03T11:49:54;100357.28;;;32.45;32.98
34696;BME280;20918;51.138;17.370;2022-08-03T11:52:58;100354.70;;;32.24;33.89
34696;BME280;20918;51.138;17.370;2022-08-03T11:56:01;100352.67;;;32.29;34.09
34696;BME280;20918;51.138;17.370;2022-08-03T11:59:03;100357.64;;;32.55;34.15
34696;BME280;20918;51.138;17.370;2022-08-03T12:02:06;100349.14;;;32.68;34.10
34696;BME280;20918;51.138;17.370;2022-08-03T12:05:12;100342.97;;;32.73;33.18
34696;BME280;20918;51.138;17.370;2022-08-03T12:08:16;100345.91;;;32.88;32.79
34696;BME280;20918;51.138;17.370;2022-08-03T12:11:18;100338.34;;;33.08;32.09
34696;BME280;20918;51.138;17.370;2022-08-03T12:14:19;100346.22;;;33.23;31.58
34696;BME280;20918;51.138;17.370;2022-08-03T12:17:20;100338.61;;;33.09;32.04
34696;BME280;20918;51.138;17.370;2022-08-03T12:20:24;100339.41;;;33.09;32.20
34696;BME280;20918;51.138;17.370;2022-08-03T12:23:27;100335.59;;;33.08;31.56
34696;BME280;20918;51.138;17.370;2022-08-03T12:26:29;100334.72;;;32.73;31.78
34696;BME280;20918;51.138;17.370;2022-08-03T12:29:33;100325.55;;;32.67;32.06
34696;BME280;20918;51.138;17.370;2022-08-03T12:32:38;100330.27;;;32.52;32.25
34696;BME280;20918;51.138;17.370;2022-08-03T12:35:39;100329.28;;;32.32;31.34
34696;BME280;20918;51.138;17.370;2022-08-03T12:38:40;100330.80;;;32.13;31.65
34696;BME280;20918;51.138;17.370;2022-08-03T12:41:42;100331.80;;;32.03;31.59
34696;BME280;20918;51.138;17.370;2022-08-03T12:44:43;100325.27;;;31.85;32.31
34696;BME280;20918;51.138;17.370;2022-08-03T12:48:00;100326.59;;;31.88;31.44
34696;BME280;20918;51.138;17.370;2022-08-03T12:51:09;100319.64;;;31.93;31.05
34696;BME280;20918;51.138;17.370;2022-08-03T12:54:22;100317.85;;;31.86;30.62
34696;BME280;20918;51.138;17.370;2022-08-03T12:57:40;100316.88;;;31.65;31.42
34696;BME280;20918;51.138;17.370;2022-08-03T13:00:53;100321.58;;;31.92;31.77
34696;BME280;20918;51.138;17.370;2022-08-03T13:03:55;100309.50;;;32.07;31.74
34696;BME280;20918;51.138;17.370;2022-08-03T13:07:01;100311.30;;;32.26;32.29
34696;BME280;20918;51.138;17.370;2022-08-03T13:10:08;100312.06;;;32.29;32.23
34696;BME280;20918;51.138;17.370;2022-08-03T13:13:10;100311.45;;;32.18;31.90
34696;BME280;20918;51.138;17.370;2022-08-03T13:16:12;100310.70;;;32.01;31.41
34696;BME280;20918;51.138;17.370;2022-08-03T13:19:13;100312.69;;;31.98;31.70
34696;BME280;20918;51.138;17.370;2022-08-03T13:22:21;100313.62;;;31.93;31.10
34696;BME280;20918;51.138;17.370;2022-08-03T13:25:25;100317.55;;;31.74;31.16
34696;BME280;20918;51.138;17.370;2022-08-03T13:28:26;100310.06;;;31.63;30.83
34696;BME280;20918;51.138;17.370;2022-08-03T13:31:27;100311.50;;;31.44;31.16
34696;BME280;20918;51.138;17.370;2022-08-03T13:34:29;100313.41;;;31.27;31.20
34696;BME280;20918;51.138;17.370;2022-08-03T13:37:31;100306.99;;;31.18;31.67
34696;BME280;20918;51.138;17.370;2022-08-03T13:40:32;100311.83;;;31.07;30.97
34696;BME280;20918;51.138;17.370;2022-08-03T13:43:34;100317.73;;;30.98;30.92
34696;BME280;20918;51.138;17.370;2022-08-03T13:46:35;100301.28;;;30.79;31.25
34696;BME280;20918;51.138;17.370;2022-08-03T13:49:36;100295.84;;;30.76;32.14
34696;BME280;20918;51.138;17.370;2022-08-03T13:52:38;100296.56;;;30.85;32.11
34696;BME280;20918;51.138;17.370;2022-08-03T13:55:39;100290.90;;;30.97;32.50
34696;BME280;20918;51.138;17.370;2022-08-03T13:58:40;100294.27;;;31.08;32.08
34696;BME280;20918;51.138;17.370;2022-08-03T14:01:41;100295.55;;;31.13;31.73
34696;BME280;20918;51.138;17.370;2022-08-03T14:04:42;100291.44;;;31.13;31.57
34696;BME280;20918;51.138;17.370;2022-08-03T14:07:43;100295.87;;;31.12;31.34
34696;BME280;20918;51.138;17.370;2022-08-03T14:10:45;100288.25;;;31.09;31.72
34696;BME280;20918;51.138;17.370;2022-08-03T14:13:46;100283.83;;;31.10;32.72
34696;BME280;20918;51.138;17.370;2022-08-03T14:16:47;100286.27;;;31.12;31.74
34696;BME280;20918;51.138;17.370;2022-08-03T14:19:48;100283.22;;;31.13;32.21
34696;BME280;20918;51.138;17.370;2022-08-03T14:22:49;100281.37;;;31.25;32.55
34696;BME280;20918;51.138;17.370;2022-08-03T14:25:51;100276.77;;;31.23;32.27
34696;BME280;20918;51.138;17.370;2022-08-03T14:28:52;100278.87;;;31.12;32.26
34696;BME280;20918;51.138;17.370;2022-08-03T14:31:53;100277.05;;;31.05;32.73
34696;BME280;20918;51.138;17.370;2022-08-03T14:34:54;100274.87;;;31.04;31.87
34696;BME280;20918;51.138;17.370;2022-08-03T14:37:56;100276.80;;;30.88;31.22
34696;BME280;20918;51.138;17.370;2022-08-03T14:40:57;100280.25;;;30.74;31.48
34696;BME280;20918;51.138;17.370;2022-08-03T14:43:58;100272.91;;;30.72;31.16
34696;BME280;20918;51.138;17.370;2022-08-03T14:46:59;100269.36;;;30.53;31.16
34696;BME280;20918;51.138;17.370;2022-08-03T14:50:00;100271.23;;;30.55;31.17
34696;BME280;20918;51.138;17.370;2022-08-03T14:53:03;100270.03;;;30.45;31.42
34696;BME280;20918;51.138;17.370;2022-08-03T14:56:04;100272.98;;;30.48;31.63
34696;BME280;20918;51.138;17.370;2022-08-03T14:59:05;100261.99;;;30.51;31.84
34696;BME280;20918;51.138;17.370;2022-08-03T15:02:06;100257.15;;;30.45;31.93
34696;BME280;20918;51.138;17.370;2022-08-03T15:05:08;100258.97;;;30.33;32.01
34696;BME280;20918;51.138;17.370;2022-08-03T15:08:11;100253.52;;;30.31;31.57
34696;BME280;20918;51.138;17.370;2022-08-03T15:11:13;100256.05;;;30.27;31.25
34696;BME280;20918;51.138;17.370;2022-08-03T15:14:14;100253.66;;;30.18;31.37
34696;BME280;20918;51.138;17.370;2022-08-03T15:17:15;100251.81;;;30.13;31.79
34696;BME280;20918;51.138;17.370;2022-08-03T15:20:16;100247.19;;;30.11;32.24
34696;BME280;20918;51.138;17.370;2022-08-03T15:23:18;100250.77;;;30.09;31.26
34696;BME280;20918;51.138;17.370;2022-08-03T15:26:19;100248.09;;;30.04;31.56
34696;BME280;20918;51.138;17.370;2022-08-03T15:29:20;100247.56;;;30.05;31.58
34696;BME280;20918;51.138;17.370;2022-08-03T15:32:21;100242.18;;;29.97;31.28
34696;BME280;20918;51.138;17.370;2022-08-03T15:35:22;100241.95;;;29.93;31.15
34696;BME280;20918;51.138;17.370;2022-08-03T15:38:24;100236.23;;;29.90;31.23
34696;BME280;20918;51.138;17.370;2022-08-03T15:41:25;100239.31;;;29.86;31.65
34696;BME280;20918;51.138;17.370;2022-08-03T15:44:26;100231.22;;;29.76;31.59
34696;BME280;20918;51.138;17.370;2022-08-03T15:47:27;100238.08;;;29.73;32.07
34696;BME280;20918;51.138;17.370;2022-08-03T15:50:29;100232.39;;;29.69;31.83
34696;BME280;20918;51.138;17.370;2022-08-03T15:53:30;100230.47;;;29.70;32.02
34696;BME280;20918;51.138;17.370;2022-08-03T15:56:33;100230.75;;;29.71;32.02
34696;BME280;20918;51.138;17.370;2022-08-03T15:59:34;100231.80;;;29.73;32.53